createdAt,value
2018-04-02T00:00:37.523Z,4.10
2018-04-02T00:03:05.841Z,4.03
2018-04-02T00:05:34.245Z,3.80
2018-04-02T00:08:02.651Z,3.94
2018-04-02T00:10:30.970Z,3.93
2018-04-02T00:12:59.340Z,3.88
2018-04-02T00:15:27.652Z,3.87
2018-04-02T00:17:56.000Z,3.79
2018-04-02T00:20:24.345Z,4.09
2018-04-02T00:22:53.456Z,4.13
2018-04-02T00:25:21.781Z,4.06
2018-04-02T00:27:50.193Z,4.12
2018-04-02T00:30:19.286Z,4.05
2018-04-02T00:32:47.662Z,3.93
2018-04-02T00:35:21.927Z,4.00
2018-04-02T00:37:50.263Z,3.92
2018-04-02T00:40:18.578Z,4.10
2018-04-02T00:42:46.951Z,4.04
2018-04-02T00:45:15.332Z,4.02
2018-04-02T00:47:43.654Z,3.81
2018-04-02T00:50:13.075Z,3.76
2018-04-02T00:52:41.500Z,3.78
2018-04-02T00:55:10.009Z,3.82
2018-04-02T00:57:40.604Z,3.78
2018-04-02T01:00:09.526Z,3.76
2018-04-02T01:02:37.852Z,3.79
2018-04-02T01:05:06.969Z,3.72
2018-04-02T01:07:35.270Z,3.76
2018-04-02T01:10:03.596Z,3.63
2018-04-02T01:12:32.136Z,3.61
2018-04-02T01:15:00.472Z,3.75
2018-04-02T01:17:28.794Z,3.62
2018-04-02T01:19:58.142Z,3.50
2018-04-02T01:22:26.654Z,3.45
2018-04-02T01:24:55.008Z,3.63
2018-04-02T01:27:23.559Z,3.62
2018-04-02T01:29:51.876Z,3.59
2018-04-02T01:32:20.356Z,3.79
2018-04-02T01:34:49.184Z,3.67
2018-04-02T01:37:17.533Z,3.62
2018-04-02T01:39:46.014Z,3.65
2018-04-02T01:42:14.356Z,3.58
2018-04-02T01:44:42.664Z,3.57
2018-04-02T01:47:10.982Z,3.65
2018-04-02T01:49:39.308Z,3.65
2018-04-02T01:52:07.768Z,3.48
2018-04-02T01:54:36.285Z,3.49
2018-04-02T01:57:05.147Z,3.50
2018-04-02T01:59:33.627Z,3.48
2018-04-02T02:02:02.159Z,3.21
2018-04-02T02:04:30.523Z,3.19
2018-04-02T02:06:59.028Z,3.29
2018-04-02T02:09:27.359Z,3.24
2018-04-02T02:11:55.885Z,3.39
2018-04-02T02:14:24.220Z,3.22
2018-04-02T02:16:53.342Z,3.12
2018-04-02T02:19:22.721Z,3.25
2018-04-02T02:21:51.778Z,3.14
2018-04-02T02:24:20.358Z,3.27
2018-04-02T02:26:48.732Z,3.24
2018-04-02T02:29:17.064Z,3.27
2018-04-02T02:31:46.347Z,3.23
2018-04-02T02:34:14.826Z,3.24
2018-04-02T02:36:43.525Z,3.16
2018-04-02T02:39:12.057Z,3.19
2018-04-02T02:41:40.465Z,3.32
2018-04-02T02:44:08.785Z,3.41
2018-04-02T02:46:37.249Z,3.43
2018-04-02T02:49:07.031Z,3.50
2018-04-02T02:51:35.486Z,3.43
2018-04-02T02:54:03.815Z,3.35
2018-04-02T02:56:32.935Z,3.29
2018-04-02T02:59:01.439Z,3.45
2018-04-02T03:01:29.778Z,3.50
2018-04-02T03:03:58.447Z,3.48
2018-04-02T03:06:28.274Z,3.35
2018-04-02T03:08:57.505Z,3.38
2018-04-02T03:11:26.165Z,3.28
2018-04-02T03:13:54.834Z,3.34
2018-04-02T03:16:23.132Z,3.34
2018-04-02T03:18:51.664Z,3.48
2018-04-02T03:21:20.080Z,3.40
2018-04-02T03:23:49.179Z,3.51
2018-04-02T03:26:17.886Z,3.58
2018-04-02T03:28:46.329Z,3.62
2018-04-02T03:31:17.706Z,3.60
2018-04-02T03:33:47.047Z,3.40
2018-04-02T03:36:15.529Z,3.59
2018-04-02T03:38:43.970Z,3.60
2018-04-02T03:41:12.510Z,3.55
2018-04-02T03:43:40.943Z,3.51
2018-04-02T03:46:10.091Z,3.53
2018-04-02T03:48:38.542Z,3.49
2018-04-02T03:51:07.213Z,3.38
2018-04-02T03:53:35.613Z,3.28
2018-04-02T03:56:03.993Z,3.36
2018-04-02T03:58:32.456Z,3.24
2018-04-02T04:01:00.846Z,3.35
2018-04-02T04:03:29.227Z,3.18
2018-04-02T04:05:58.149Z,3.13
2018-04-02T04:08:26.609Z,3.14
2018-04-02T04:10:55.326Z,3.20
2018-04-02T04:13:24.381Z,3.27
2018-04-02T04:15:52.729Z,3.13
2018-04-02T04:18:21.967Z,3.12
2018-04-02T04:20:50.436Z,3.01
2018-04-02T04:23:18.943Z,3.13
2018-04-02T04:25:48.020Z,3.29
2018-04-02T04:28:16.340Z,3.24
2018-04-02T04:30:45.059Z,3.20
2018-04-02T04:33:13.668Z,3.01
2018-04-02T04:35:42.376Z,3.04
2018-04-02T04:38:10.687Z,2.78
2018-04-02T04:40:39.044Z,2.99
2018-04-02T04:43:07.373Z,3.21
2018-04-02T04:45:36.031Z,3.17
2018-04-02T04:48:04.373Z,3.09
2018-04-02T04:50:32.793Z,3.12
2018-04-02T04:53:01.094Z,3.11
2018-04-02T04:55:30.430Z,2.95
2018-04-02T04:57:58.811Z,3.04
2018-04-02T05:00:27.109Z,2.83
2018-04-02T05:02:56.454Z,3.09
2018-04-02T05:05:24.835Z,3.20
2018-04-02T05:07:54.715Z,3.13
2018-04-02T05:10:23.336Z,3.18
2018-04-02T05:12:52.024Z,3.20
2018-04-02T05:15:20.360Z,3.12
2018-04-02T05:17:48.876Z,3.36
2018-04-02T05:20:17.965Z,3.44
2018-04-02T05:22:47.236Z,3.48
2018-04-02T05:25:15.640Z,3.40
2018-04-02T05:27:43.963Z,3.48
2018-04-02T05:30:12.349Z,3.77
2018-04-02T05:32:40.750Z,3.67
2018-04-02T05:35:09.068Z,3.81
2018-04-02T05:37:38.373Z,4.02
2018-04-02T05:40:07.569Z,4.02
2018-04-02T05:42:35.887Z,4.12
2018-04-02T05:45:04.280Z,4.00
2018-04-02T05:47:32.642Z,3.95
2018-04-02T05:50:00.973Z,3.96
2018-04-02T05:52:30.072Z,4.13
2018-04-02T05:54:59.223Z,4.03
2018-04-02T05:57:27.548Z,4.25
2018-04-02T05:59:55.905Z,4.55
2018-04-02T06:02:24.709Z,4.30
2018-04-02T06:04:53.047Z,4.53
2018-04-02T06:07:21.360Z,4.54
2018-04-02T06:09:49.725Z,4.71
2018-04-02T06:12:18.098Z,4.95
2018-04-02T06:14:46.431Z,4.59
2018-04-02T06:17:14.789Z,4.94
2018-04-02T06:19:43.113Z,5.10
2018-04-02T06:22:12.164Z,5.24
2018-04-02T06:24:42.291Z,5.39
2018-04-02T06:27:10.660Z,5.60
2018-04-02T06:29:39.737Z,5.74
2018-04-02T06:32:08.108Z,6.09
2018-04-02T06:34:36.476Z,6.43
2018-04-02T06:37:04.849Z,6.94
2018-04-02T06:39:33.133Z,7.25
2018-04-02T06:42:01.452Z,7.77
2018-04-02T06:44:29.776Z,8.30
2018-04-02T06:46:58.333Z,8.48
2018-04-02T06:49:26.662Z,9.06
2018-04-02T06:51:54.990Z,9.62
2018-04-02T06:54:23.346Z,9.42
2018-04-02T06:56:52.438Z,9.66
2018-04-02T06:59:21.579Z,10.00
2018-04-02T07:01:49.940Z,10.94
2018-04-02T07:04:18.298Z,11.59
2018-04-02T07:06:47.389Z,12.17
2018-04-02T07:09:16.592Z,12.33
2018-04-02T07:11:45.712Z,12.12
2018-04-02T07:14:14.035Z,11.86
2018-04-02T07:16:43.208Z,12.13
2018-04-02T07:19:11.554Z,11.74
2018-04-02T07:21:40.072Z,12.44
2018-04-02T07:24:08.456Z,13.64
2018-04-02T07:26:36.808Z,14.45
2018-04-02T07:29:05.135Z,14.73
2018-04-02T07:31:33.561Z,15.81
2018-04-02T07:34:01.936Z,16.30
2018-04-02T07:36:31.066Z,15.93
2018-04-02T07:38:59.457Z,15.79
2018-04-02T07:41:28.567Z,16.13
2018-04-02T07:43:56.943Z,17.03
2018-04-02T07:46:26.024Z,15.98
2018-04-02T07:48:54.344Z,15.88
2018-04-02T07:51:23.455Z,15.37
2018-04-02T07:53:51.857Z,14.53
2018-04-02T07:56:20.207Z,14.13
2018-04-02T07:58:48.553Z,14.03
2018-04-02T08:01:16.932Z,13.60
2018-04-02T08:03:45.273Z,12.04
2018-04-02T08:06:13.616Z,10.35
2018-04-02T08:08:43.380Z,10.29
2018-04-02T08:11:11.091Z,10.89
2018-04-02T08:13:39.445Z,12.38
2018-04-02T08:16:07.871Z,13.36
2018-04-02T08:18:36.978Z,15.32
2018-04-02T08:21:05.340Z,14.81
2018-04-02T08:23:33.738Z,12.72
2018-04-02T08:26:02.091Z,11.85
2018-04-02T08:28:31.217Z,13.05
2018-04-02T08:30:59.579Z,13.07
2018-04-02T08:33:27.911Z,14.15
2018-04-02T08:35:57.026Z,16.20
2018-04-02T08:38:25.430Z,15.56
2018-04-02T08:40:53.773Z,14.83
2018-04-02T08:43:22.099Z,15.37
2018-04-02T08:45:50.483Z,16.86
2018-04-02T08:48:18.796Z,20.07
2018-04-02T08:50:47.114Z,21.62
2018-04-02T08:53:16.232Z,21.09
2018-04-02T08:55:44.593Z,21.43
2018-04-02T08:58:12.946Z,21.63
2018-04-02T09:00:41.365Z,22.68
2018-04-02T09:03:09.756Z,20.52
2018-04-02T09:05:38.049Z,20.56
2018-04-02T09:08:06.417Z,20.21
2018-04-02T09:10:34.752Z,19.25
2018-04-02T09:13:03.056Z,20.99
2018-04-02T09:15:32.169Z,20.50
2018-04-02T09:18:00.505Z,20.38
2018-04-02T09:20:28.817Z,21.20
2018-04-02T09:22:57.686Z,21.82
2018-04-02T09:25:26.023Z,23.09
2018-04-02T09:27:54.330Z,24.53
2018-04-02T09:30:22.707Z,24.52
2018-04-02T09:32:51.040Z,24.42
2018-04-02T09:35:19.370Z,24.80
2018-04-02T09:37:48.600Z,25.03
2018-04-02T09:40:16.987Z,22.63
2018-04-02T09:42:45.342Z,19.94
2018-04-02T09:45:13.872Z,22.18
2018-04-02T09:47:43.075Z,24.30
2018-04-02T09:50:11.414Z,26.35
2018-04-02T09:52:39.765Z,27.56
2018-04-02T09:55:08.098Z,27.89
2018-04-02T09:57:36.437Z,27.43
2018-04-02T10:00:04.833Z,26.86
2018-04-02T10:02:37.080Z,26.56
2018-04-02T10:05:06.489Z,24.71
2018-04-02T10:07:34.619Z,25.73
2018-04-02T10:10:02.983Z,26.61
2018-04-02T10:12:31.317Z,27.72
2018-04-02T10:15:00.417Z,28.74
2018-04-02T10:17:28.791Z,29.71
2018-04-02T10:19:57.224Z,28.64
2018-04-02T10:22:25.518Z,28.96
2018-04-02T10:24:53.820Z,29.11
2018-04-02T10:27:23.020Z,29.77
2018-04-02T10:29:52.317Z,28.95
2018-04-02T10:32:20.590Z,28.99
2018-04-02T10:34:48.952Z,28.75
2018-04-02T10:37:17.287Z,29.39
2018-04-02T10:39:45.632Z,28.41
2018-04-02T10:42:14.799Z,29.01
2018-04-02T10:44:43.139Z,29.37
2018-04-02T10:47:11.497Z,29.55
2018-04-02T10:49:40.326Z,29.92
2018-04-02T10:52:08.664Z,28.07
2018-04-02T10:54:37.738Z,25.90
2018-04-02T10:57:06.180Z,24.07
2018-04-02T10:59:34.509Z,24.05
2018-04-02T11:02:03.630Z,26.25
2018-04-02T11:04:32.031Z,27.88
2018-04-02T11:07:00.345Z,29.61
2018-04-02T11:09:28.658Z,30.23
2018-04-02T11:11:58.127Z,28.67
2018-04-02T11:14:26.551Z,28.33
2018-04-02T11:16:54.904Z,28.53
2018-04-02T11:19:24.568Z,28.41
2018-04-02T11:21:52.901Z,26.66
2018-04-02T11:24:22.048Z,27.95
2018-04-02T11:26:50.463Z,28.89
2018-04-02T11:29:18.824Z,30.38
2018-04-02T11:31:47.158Z,30.65
2018-04-02T11:34:15.778Z,31.17
2018-04-02T11:36:44.084Z,31.06
2018-04-02T11:39:12.397Z,27.25
2018-04-02T11:41:40.741Z,25.53
2018-04-02T11:44:09.086Z,24.47
2018-04-02T11:46:37.426Z,27.40
2018-04-02T11:49:06.587Z,28.93
2018-04-02T11:51:35.720Z,30.44
2018-04-02T11:54:04.071Z,30.72
2018-04-02T11:56:32.781Z,30.53
2018-04-02T11:59:01.848Z,29.38
2018-04-02T12:01:30.196Z,24.37
2018-04-02T12:03:58.596Z,25.00
2018-04-02T12:06:26.866Z,26.93
2018-04-02T12:08:55.193Z,28.94
2018-04-02T12:11:23.537Z,29.14
2018-04-02T12:13:51.905Z,27.69
2018-04-02T12:16:20.322Z,25.39
2018-04-02T12:18:49.556Z,23.66
2018-04-02T12:21:17.857Z,21.93
2018-04-02T12:23:46.175Z,20.30
2018-04-02T12:26:15.356Z,20.58
2018-04-02T12:28:43.722Z,22.19
2018-04-02T12:31:12.052Z,23.79
2018-04-02T12:33:40.389Z,23.37
2018-04-02T12:36:10.371Z,24.44
2018-04-02T12:38:38.755Z,25.60
2018-04-02T12:41:07.275Z,24.85
2018-04-02T12:43:35.583Z,23.52
2018-04-02T12:46:03.952Z,21.04
2018-04-02T12:48:33.102Z,18.44
2018-04-02T12:51:01.381Z,18.70
2018-04-02T12:53:29.726Z,19.04
2018-04-02T12:55:58.087Z,18.65
2018-04-02T12:58:27.192Z,18.07
2018-04-02T13:00:55.506Z,16.72
2018-04-02T13:03:24.464Z,16.05
2018-04-02T13:05:52.815Z,16.37
2018-04-02T13:08:21.154Z,16.77
2018-04-02T13:10:49.544Z,16.10
2018-04-02T13:13:17.879Z,15.90
2018-04-02T13:15:46.213Z,15.89
2018-04-02T13:18:14.727Z,15.58
2018-04-02T13:20:43.250Z,15.96
2018-04-02T13:23:11.582Z,16.08
2018-04-02T13:25:40.750Z,15.43
2018-04-02T13:28:09.088Z,14.62
2018-04-02T13:30:37.445Z,14.41
2018-04-02T13:33:06.549Z,14.76
2018-04-02T13:35:35.637Z,14.43
2018-04-02T13:38:04.808Z,14.42
2018-04-02T13:40:33.169Z,14.44
2018-04-02T13:43:01.491Z,14.51
2018-04-02T13:45:30.585Z,14.15
2018-04-02T13:48:00.091Z,14.16
2018-04-02T13:50:29.501Z,14.76
2018-04-02T13:52:58.372Z,14.65
2018-04-02T13:55:27.520Z,14.53
2018-04-02T13:57:55.899Z,15.38
2018-04-02T14:00:24.284Z,16.50
2018-04-02T14:02:52.732Z,16.94
2018-04-02T14:05:21.058Z,16.84
2018-04-02T14:07:49.554Z,15.96
2018-04-02T14:10:19.207Z,15.46
2018-04-02T14:12:47.525Z,16.02
2018-04-02T14:15:15.931Z,15.77
2018-04-02T14:17:44.302Z,15.72
2018-04-02T14:20:13.406Z,15.76
2018-04-02T14:22:42.524Z,15.01
2018-04-02T14:25:11.653Z,15.56
2018-04-02T14:27:39.971Z,15.16
2018-04-02T14:30:08.374Z,14.61
2018-04-02T14:32:36.893Z,14.51
2018-04-02T14:35:05.306Z,14.53
2018-04-02T14:37:33.624Z,14.58
2018-04-02T14:40:02.857Z,15.17
2018-04-02T14:42:31.190Z,15.06
2018-04-02T14:45:00.288Z,14.99
2018-04-02T14:47:29.588Z,14.71
2018-04-02T14:49:57.934Z,15.14
2018-04-02T14:52:26.284Z,14.97
2018-04-02T14:54:54.937Z,14.06
2018-04-02T14:57:23.444Z,14.30
2018-04-02T14:59:51.761Z,14.48
2018-04-02T15:02:20.925Z,14.73
2018-04-02T15:04:49.240Z,14.58
2018-04-02T15:07:17.582Z,14.23
2018-04-02T15:12:20.305Z,13.97
2018-04-02T15:14:48.707Z,14.35
2018-04-02T15:17:17.060Z,13.93
2018-04-02T15:19:45.384Z,13.46
2018-04-02T15:22:14.500Z,13.35
2018-04-02T15:24:43.909Z,13.51
2018-04-02T15:27:12.297Z,13.82
2018-04-02T15:29:40.683Z,13.82
2018-04-02T15:32:09.010Z,13.90
2018-04-02T15:34:37.363Z,13.65
2018-04-02T15:37:05.797Z,13.93
2018-04-02T15:39:34.170Z,13.99
2018-04-02T15:42:03.632Z,13.81
2018-04-02T15:44:32.185Z,13.24
2018-04-02T15:47:00.545Z,13.34
2018-04-02T15:49:28.923Z,12.79
2018-04-02T15:51:57.302Z,12.80
2018-04-02T15:54:25.634Z,13.03
2018-04-02T15:56:54.634Z,13.26
2018-04-02T15:59:23.238Z,13.29
2018-04-02T16:01:52.352Z,13.48
2018-04-02T16:04:21.530Z,13.49
2018-04-02T16:06:50.709Z,13.54
2018-04-02T16:09:20.552Z,13.34
2018-04-02T16:11:49.661Z,13.33
2018-04-02T16:14:18.055Z,13.32
2018-04-02T16:16:46.377Z,13.16
2018-04-02T16:19:14.746Z,13.18
2018-04-02T16:21:43.462Z,13.28
2018-04-02T16:24:11.799Z,13.26
2018-04-02T16:26:40.118Z,13.33
2018-04-02T16:29:09.237Z,13.32
2018-04-02T16:31:37.573Z,13.01
2018-04-02T16:34:05.920Z,13.12
2018-04-02T16:36:34.297Z,12.99
2018-04-02T16:39:02.863Z,12.95
2018-04-02T16:41:31.270Z,12.60
2018-04-02T16:43:59.857Z,12.80
2018-04-02T16:46:28.186Z,12.60
2018-04-02T16:48:56.562Z,12.53
2018-04-02T16:51:24.938Z,12.61
2018-04-02T16:53:53.319Z,12.25
2018-04-02T16:56:22.438Z,11.94
2018-04-02T16:58:50.809Z,12.19
2018-04-02T17:01:19.140Z,12.38
2018-04-02T17:03:47.906Z,12.49
2018-04-02T17:06:16.590Z,12.68
2018-04-02T17:08:44.920Z,12.53
2018-04-02T17:11:14.038Z,12.39
2018-04-02T17:13:43.132Z,12.55
2018-04-02T17:16:12.205Z,12.72
2018-04-02T17:18:40.535Z,12.63
2018-04-02T17:21:08.905Z,12.49
2018-04-02T17:23:37.259Z,12.48
2018-04-02T17:26:06.342Z,12.38
2018-04-02T17:28:35.661Z,12.33
2018-04-02T17:31:04.021Z,12.29
2018-04-02T17:33:32.363Z,12.36
2018-04-02T17:36:00.715Z,12.41
2018-04-02T17:38:29.079Z,12.20
2018-04-02T17:40:57.456Z,12.35
2018-04-02T17:43:25.870Z,12.12
2018-04-02T17:45:54.221Z,12.02
2018-04-02T17:48:22.554Z,12.20
2018-04-02T17:50:51.269Z,12.13
2018-04-02T17:53:19.643Z,12.19
2018-04-02T17:55:48.761Z,11.95
2018-04-02T17:58:17.229Z,11.62
2018-04-02T18:00:45.677Z,11.66
2018-04-02T18:03:14.022Z,11.44
2018-04-02T18:05:42.380Z,11.38
2018-04-02T18:08:11.487Z,11.53
2018-04-02T18:10:39.871Z,11.15
2018-04-02T18:13:08.551Z,11.14
2018-04-02T18:15:36.865Z,11.29
2018-04-02T18:18:05.227Z,10.94
2018-04-02T18:20:33.597Z,11.20
2018-04-02T18:23:01.940Z,11.16
2018-04-02T18:25:30.681Z,11.38
2018-04-02T18:27:59.056Z,11.35
2018-04-02T18:30:27.424Z,11.33
2018-04-02T18:32:55.754Z,11.14
2018-04-02T18:35:24.158Z,11.24
2018-04-02T18:37:53.243Z,11.22
2018-04-02T18:40:21.605Z,11.26
2018-04-02T18:42:50.759Z,11.08
2018-04-02T18:45:19.139Z,11.10
2018-04-02T18:47:47.457Z,11.24
2018-04-02T18:50:15.819Z,11.14
2018-04-02T18:52:44.170Z,10.92
2018-04-02T18:55:12.480Z,10.74
2018-04-02T18:57:40.984Z,10.56
2018-04-02T19:00:09.395Z,10.66
2018-04-02T19:02:37.746Z,10.85
2018-04-02T19:05:06.887Z,10.53
2018-04-02T19:07:35.207Z,10.58
2018-04-02T19:10:03.542Z,10.73
2018-04-02T19:12:31.891Z,10.74
2018-04-02T19:15:01.006Z,10.84
2018-04-02T19:17:29.331Z,10.65
2018-04-02T19:19:58.064Z,10.48
2018-04-02T19:22:26.394Z,10.48
2018-04-02T19:24:54.757Z,10.42
2018-04-02T19:27:23.138Z,10.22
2018-04-02T19:29:51.464Z,10.31
2018-04-02T19:32:20.547Z,10.30
2018-04-02T19:34:48.942Z,10.46
2018-04-02T19:37:17.258Z,10.21
2018-04-02T19:39:45.701Z,10.28
2018-04-02T19:42:14.183Z,10.25
2018-04-02T19:44:43.523Z,10.06
2018-04-02T19:47:12.016Z,9.91
2018-04-02T19:49:40.519Z,9.78
2018-04-02T19:52:08.861Z,9.93
2018-04-02T19:54:37.214Z,9.96
2018-04-02T19:57:05.686Z,10.11
2018-04-02T19:59:34.181Z,10.25
2018-04-02T20:02:02.563Z,10.59
2018-04-02T20:04:31.133Z,10.34
2018-04-02T20:07:00.236Z,10.31
2018-04-02T20:09:28.590Z,10.42
2018-04-02T20:11:57.201Z,10.13
2018-04-02T20:14:25.892Z,9.82
2018-04-02T20:16:54.241Z,9.88
2018-04-02T20:19:22.636Z,10.13
2018-04-02T20:21:51.741Z,9.93
2018-04-02T20:24:20.079Z,9.74
2018-04-02T20:26:48.920Z,9.71
2018-04-02T20:29:17.258Z,9.72
2018-04-02T20:31:45.602Z,9.98
2018-04-02T20:34:14.744Z,9.93
2018-04-02T20:36:43.080Z,9.92
2018-04-02T20:39:11.396Z,9.97
2018-04-02T20:41:40.112Z,9.83
2018-04-02T20:44:09.201Z,10.03
2018-04-02T20:46:37.560Z,9.73
2018-04-02T20:49:06.331Z,9.66
2018-04-02T20:51:35.493Z,9.59
2018-04-02T20:54:03.845Z,9.88
2018-04-02T20:56:32.195Z,9.99
2018-04-02T20:59:00.614Z,9.88
2018-04-02T21:01:29.019Z,10.00
2018-04-02T21:03:57.389Z,9.74
2018-04-02T21:06:25.730Z,9.84
2018-04-02T21:08:54.849Z,9.96
2018-04-02T21:11:23.513Z,9.96
2018-04-02T21:13:52.607Z,9.96
2018-04-02T21:16:21.704Z,9.90
2018-04-02T21:18:50.842Z,9.93
2018-04-02T21:21:19.192Z,10.05
2018-04-02T21:23:47.531Z,10.13
2018-04-02T21:26:15.916Z,10.11
2018-04-02T21:28:44.270Z,10.00
2018-04-02T21:31:12.592Z,10.22
2018-04-02T21:33:41.035Z,10.19
2018-04-02T21:36:09.349Z,10.21
2018-04-02T21:38:37.703Z,10.17
2018-04-02T21:41:06.070Z,10.08
2018-04-02T21:43:34.621Z,10.23
2018-04-02T21:46:03.264Z,10.07
2018-04-02T21:48:31.710Z,10.16
2018-04-02T21:51:00.058Z,10.15
2018-04-02T21:53:29.128Z,10.04
2018-04-02T21:55:57.583Z,10.17
2018-04-02T21:58:25.884Z,9.98
2018-04-02T22:00:54.241Z,10.19
2018-04-02T22:03:22.629Z,10.06
2018-04-02T22:05:51.026Z,10.01
2018-04-02T22:08:19.362Z,10.03
2018-04-02T22:10:47.772Z,10.17
2018-04-02T22:13:16.159Z,9.98
2018-04-02T22:15:45.289Z,10.16
2018-04-02T22:18:14.585Z,10.25
2018-04-02T22:20:43.711Z,10.39
2018-04-02T22:23:12.014Z,10.40
2018-04-02T22:25:40.435Z,10.33
2018-04-02T22:28:09.544Z,10.01
2018-04-02T22:30:37.972Z,10.07
2018-04-02T22:33:06.327Z,10.04
2018-04-02T22:35:34.681Z,9.88
2018-04-02T22:38:03.028Z,10.24
2018-04-02T22:40:33.108Z,10.26
2018-04-02T22:43:01.705Z,10.23
2018-04-02T22:45:30.136Z,10.18
2018-04-02T22:47:59.247Z,9.97
2018-04-02T22:50:27.560Z,9.95
2018-04-02T22:52:55.906Z,10.10
2018-04-02T22:55:24.274Z,10.26
2018-04-02T22:57:53.418Z,10.30
2018-04-02T23:00:22.737Z,10.43
2018-04-02T23:02:51.174Z,10.15
2018-04-02T23:05:19.606Z,10.34
2018-04-02T23:07:48.177Z,10.18
2018-04-02T23:10:16.745Z,10.23
2018-04-02T23:12:45.120Z,10.38
2018-04-02T23:15:13.455Z,10.42
2018-04-02T23:17:42.019Z,10.23
2018-04-02T23:20:10.397Z,10.22
2018-04-02T23:22:53.092Z,10.34
2018-04-02T23:25:21.466Z,9.92
2018-04-02T23:27:49.978Z,10.16
2018-04-02T23:30:18.309Z,10.29
2018-04-02T23:32:49.044Z,10.08
2018-04-02T23:35:17.411Z,10.08
2018-04-02T23:37:45.802Z,10.07
2018-04-02T23:40:14.120Z,10.20
2018-04-02T23:42:43.105Z,10.33
2018-04-02T23:45:11.629Z,10.32
2018-04-02T23:47:39.973Z,10.61
2018-04-02T23:50:09.060Z,10.49
2018-04-02T23:52:37.388Z,10.22
2018-04-02T23:55:05.786Z,10.17
2018-04-02T23:57:34.123Z,10.24
